createdAt,value
2023-01-29T00:00:19.962Z,-3.34
2023-01-29T00:02:50.314Z,-3.32
2023-01-29T00:05:27.762Z,-3.31
2023-01-29T00:07:57.428Z,-3.30
2023-01-29T00:10:26.758Z,-3.29
2023-01-29T00:12:55.415Z,-3.27
2023-01-29T00:15:23.994Z,-3.27
2023-01-29T00:17:53.920Z,-3.27
2023-01-29T00:20:22.524Z,-3.26
2023-01-29T00:22:50.975Z,-3.24
2023-01-29T00:25:19.537Z,-3.26
2023-01-29T00:27:48.185Z,-3.22
2023-01-29T00:30:19.912Z,-3.21
2023-01-29T00:32:48.816Z,-3.21
2023-01-29T00:35:18.951Z,-3.19
2023-01-29T00:37:48.038Z,-3.20
2023-01-29T00:40:17.253Z,-3.20
2023-01-29T00:43:04.574Z,-3.19
2023-01-29T00:45:33.828Z,-3.20
2023-01-29T00:48:02.494Z,-3.19
2023-01-29T00:50:33.064Z,-3.17
2023-01-29T00:53:01.640Z,-3.17
2023-01-29T00:55:30.132Z,-3.16
2023-01-29T00:57:58.702Z,-3.15
2023-01-29T01:00:27.283Z,-3.13
2023-01-29T01:03:06.966Z,-3.16
2023-01-29T01:05:39.292Z,-3.16
2023-01-29T01:08:29.228Z,-3.14
2023-01-29T01:11:02.406Z,-3.16
2023-01-29T01:13:32.617Z,-3.14
2023-01-29T01:16:01.160Z,-3.13
2023-01-29T01:18:32.006Z,-3.13
2023-01-29T01:21:01.941Z,-3.13
2023-01-29T01:23:30.403Z,-3.11
2023-01-29T01:25:59.347Z,-3.10
2023-01-29T01:28:28.461Z,-3.11
2023-01-29T01:30:56.992Z,-3.10
2023-01-29T01:33:25.575Z,-3.12
2023-01-29T01:35:54.099Z,-3.09
2023-01-29T01:38:24.391Z,-3.08
2023-01-29T01:40:52.820Z,-3.07
2023-01-29T01:43:22.109Z,-3.06
2023-01-29T01:45:50.602Z,-3.08
2023-01-29T01:48:23.142Z,-3.07
2023-01-29T01:50:55.076Z,-3.07
2023-01-29T01:53:31.046Z,-3.06
2023-01-29T01:56:05.078Z,-3.05
2023-01-29T01:58:38.536Z,-3.05
2023-01-29T02:01:09.669Z,-3.03
2023-01-29T02:04:01.801Z,-3.03
2023-01-29T02:06:49.291Z,-3.01
2023-01-29T02:09:36.981Z,-3.01
2023-01-29T02:12:08.054Z,-3.00
2023-01-29T02:14:40.375Z,-2.98
2023-01-29T02:17:11.936Z,-3.00
2023-01-29T02:19:49.509Z,-2.99
2023-01-29T02:22:48.413Z,-2.97
2023-01-29T02:25:54.249Z,-2.97
2023-01-29T02:28:31.617Z,-2.97
2023-01-29T02:31:09.625Z,-2.96
2023-01-29T02:33:49.011Z,-2.96
2023-01-29T02:36:24.556Z,-2.96
2023-01-29T02:39:01.968Z,-2.93
2023-01-29T02:41:35.743Z,-2.93
2023-01-29T02:44:12.012Z,-2.93
2023-01-29T02:46:47.911Z,-2.91
2023-01-29T02:49:24.827Z,-2.90
2023-01-29T02:52:00.931Z,-2.88
2023-01-29T02:54:35.811Z,-2.87
2023-01-29T02:57:16.434Z,-2.86
2023-01-29T02:59:51.399Z,-2.86
2023-01-29T03:02:27.523Z,-2.85
2023-01-29T03:05:04.316Z,-2.85
2023-01-29T03:07:52.304Z,-2.83
2023-01-29T03:10:36.639Z,-2.82
2023-01-29T03:13:11.209Z,-2.78
2023-01-29T03:15:47.191Z,-2.78
2023-01-29T03:18:46.120Z,-2.77
2023-01-29T03:21:39.117Z,-2.74
2023-01-29T03:24:29.857Z,-2.76
2023-01-29T03:27:20.669Z,-2.75
2023-01-29T03:30:08.756Z,-2.72
2023-01-29T03:32:53.361Z,-2.69
2023-01-29T03:35:35.639Z,-2.69
2023-01-29T03:38:07.608Z,-2.70
2023-01-29T03:40:54.369Z,-2.70
2023-01-29T03:43:33.541Z,-2.70
2023-01-29T03:46:09.430Z,-2.70
2023-01-29T03:48:45.996Z,-2.71
2023-01-29T03:51:26.511Z,-2.70
2023-01-29T03:54:00.929Z,-2.70
2023-01-29T03:56:41.279Z,-2.69
2023-01-29T03:59:21.079Z,-2.69
2023-01-29T04:02:28.246Z,-2.67
2023-01-29T04:05:07.676Z,-2.66
2023-01-29T04:07:46.440Z,-2.66
2023-01-29T04:10:20.524Z,-2.66
2023-01-29T04:12:54.086Z,-2.65
2023-01-29T04:15:25.806Z,-2.64
2023-01-29T04:17:57.270Z,-2.62
2023-01-29T04:20:38.149Z,-2.62
2023-01-29T04:23:08.805Z,-2.61
2023-01-29T04:25:47.283Z,-2.61
2023-01-29T04:28:23.581Z,-2.60
2023-01-29T04:30:58.472Z,-2.62
2023-01-29T04:33:39.193Z,-2.61
2023-01-29T04:36:19.817Z,-2.59
2023-01-29T04:38:59.247Z,-2.55
2023-01-29T04:41:35.490Z,-2.56
2023-01-29T04:44:13.123Z,-2.55
2023-01-29T04:46:49.811Z,-2.53
2023-01-29T04:49:31.621Z,-2.53
2023-01-29T04:52:10.287Z,-2.52
2023-01-29T04:54:52.441Z,-2.52
2023-01-29T04:57:27.813Z,-2.50
2023-01-29T05:00:05.005Z,-2.53
2023-01-29T05:02:38.579Z,-2.49
2023-01-29T05:05:08.583Z,-2.49
2023-01-29T05:07:40.988Z,-2.48
2023-01-29T05:10:13.950Z,-2.47
2023-01-29T05:12:48.385Z,-2.45
2023-01-29T05:15:24.887Z,-2.44
2023-01-29T05:17:54.306Z,-2.44
2023-01-29T05:20:23.468Z,-2.42
2023-01-29T05:22:53.868Z,-2.43
2023-01-29T05:25:25.111Z,-2.42
2023-01-29T05:28:06.343Z,-2.44
2023-01-29T05:30:37.384Z,-2.44
2023-01-29T05:33:13.869Z,-2.42
2023-01-29T05:35:43.095Z,-2.41
2023-01-29T05:38:17.565Z,-2.41
2023-01-29T05:40:46.810Z,-2.40
2023-01-29T05:43:19.963Z,-2.40
2023-01-29T05:45:54.365Z,-2.38
2023-01-29T05:48:23.906Z,-2.38
2023-01-29T05:50:53.140Z,-2.36
2023-01-29T05:53:23.512Z,-2.36
2023-01-29T05:55:52.308Z,-2.35
2023-01-29T05:58:21.286Z,-2.34
2023-01-29T06:00:50.447Z,-2.32
2023-01-29T06:03:19.434Z,-2.32
2023-01-29T06:05:49.701Z,-2.31
2023-01-29T06:08:18.421Z,-2.32
2023-01-29T06:10:48.823Z,-2.31
2023-01-29T06:13:18.327Z,-2.30
2023-01-29T06:15:47.278Z,-2.29
2023-01-29T06:18:16.204Z,-2.28
2023-01-29T06:20:45.070Z,-2.27
2023-01-29T06:23:13.993Z,-2.26
2023-01-29T06:25:42.711Z,-2.27
2023-01-29T06:28:13.052Z,-2.26
2023-01-29T06:30:47.356Z,-2.26
2023-01-29T06:33:16.251Z,-2.23
2023-01-29T06:35:44.967Z,-2.23
2023-01-29T06:38:13.766Z,-2.23
2023-01-29T06:40:43.092Z,-2.20
2023-01-29T06:43:13.406Z,-2.19
2023-01-29T06:45:48.957Z,-2.15
2023-01-29T06:48:17.975Z,-2.15
2023-01-29T06:50:47.192Z,-2.13
2023-01-29T06:53:16.027Z,-2.13
2023-01-29T06:55:45.550Z,-2.12
2023-01-29T06:58:15.838Z,-2.13
2023-01-29T07:00:44.837Z,-2.10
2023-01-29T07:03:13.447Z,-2.09
2023-01-29T07:05:42.181Z,-2.06
2023-01-29T07:08:11.988Z,-2.05
2023-01-29T07:10:40.795Z,-2.04
2023-01-29T07:13:09.437Z,-2.02
2023-01-29T07:15:39.671Z,-1.98
2023-01-29T07:18:12.758Z,-1.98
2023-01-29T07:20:42.671Z,-2.00
2023-01-29T07:23:13.752Z,-1.98
2023-01-29T07:25:42.152Z,-1.95
2023-01-29T07:28:10.882Z,-1.95
2023-01-29T07:30:41.114Z,-1.92
2023-01-29T07:33:11.522Z,-1.89
2023-01-29T07:35:41.923Z,-1.89
2023-01-29T07:38:12.076Z,-1.87
2023-01-29T07:40:40.754Z,-1.86
2023-01-29T07:43:10.660Z,-1.83
2023-01-29T07:45:42.583Z,-1.81
2023-01-29T07:48:13.681Z,-1.76
2023-01-29T07:50:42.492Z,-1.78
2023-01-29T07:53:15.221Z,-1.79
2023-01-29T07:55:46.503Z,-1.76
2023-01-29T07:58:15.499Z,-1.73
2023-01-29T08:00:45.705Z,-1.72
2023-01-29T08:03:16.409Z,-1.69
2023-01-29T08:05:45.632Z,-1.67
2023-01-29T08:08:14.767Z,-1.67
2023-01-29T08:10:44.081Z,-1.64
2023-01-29T08:13:13.120Z,-1.65
2023-01-29T08:15:46.582Z,-1.65
2023-01-29T08:18:17.166Z,-1.64
2023-01-29T08:20:45.973Z,-1.62
2023-01-29T08:23:16.898Z,-1.61
2023-01-29T08:25:45.847Z,-1.62
2023-01-29T08:28:14.578Z,-1.58
2023-01-29T08:30:45.461Z,-1.58
2023-01-29T08:33:14.071Z,-1.56
2023-01-29T08:35:42.669Z,-1.56
2023-01-29T08:38:14.345Z,-1.53
2023-01-29T08:40:43.146Z,-1.52
2023-01-29T08:43:13.534Z,-1.52
2023-01-29T08:45:45.339Z,-1.49
2023-01-29T08:48:13.962Z,-1.48
2023-01-29T08:50:46.157Z,-1.48
2023-01-29T08:53:15.749Z,-1.46
2023-01-29T08:55:44.270Z,-1.45
2023-01-29T08:58:13.694Z,-1.44
2023-01-29T09:00:42.262Z,-1.44
2023-01-29T09:03:12.327Z,-1.41
2023-01-29T09:05:42.554Z,-1.43
2023-01-29T09:08:12.622Z,-1.41
2023-01-29T09:10:41.324Z,-1.43
2023-01-29T09:13:10.031Z,-1.41
2023-01-29T09:15:38.591Z,-1.41
2023-01-29T09:18:07.635Z,-1.42
2023-01-29T09:20:38.447Z,-1.40
2023-01-29T09:23:08.695Z,-1.40
2023-01-29T09:25:37.521Z,-1.38
2023-01-29T09:28:06.833Z,-1.36
2023-01-29T09:30:37.962Z,-1.34
2023-01-29T09:33:07.372Z,-1.36
2023-01-29T09:35:37.636Z,-1.33
2023-01-29T09:38:06.152Z,-1.33
2023-01-29T09:40:43.134Z,-1.30
2023-01-29T09:43:18.287Z,-1.31
2023-01-29T09:45:55.447Z,-1.28
2023-01-29T09:48:26.752Z,-1.29
2023-01-29T09:50:59.446Z,-1.28
2023-01-29T09:53:37.066Z,-1.25
2023-01-29T09:56:10.611Z,-1.23
2023-01-29T09:58:41.291Z,-1.23
2023-01-29T10:01:15.492Z,-1.23
2023-01-29T10:04:23.997Z,-1.20
2023-01-29T10:07:12.007Z,-1.20
2023-01-29T10:10:13.388Z,-1.19
2023-01-29T10:12:56.015Z,-1.20
2023-01-29T10:15:52.529Z,-1.20
2023-01-29T10:18:58.522Z,-1.23
2023-01-29T10:21:43.495Z,-1.22
2023-01-29T10:24:25.669Z,-1.25
2023-01-29T10:26:54.454Z,-1.24
2023-01-29T10:29:23.528Z,-1.26
2023-01-29T10:31:57.057Z,-1.23
2023-01-29T10:34:32.024Z,-1.21
2023-01-29T10:37:01.411Z,-1.18
2023-01-29T10:39:33.324Z,-1.17
2023-01-29T10:42:13.547Z,-1.15
2023-01-29T10:44:54.380Z,-1.15
2023-01-29T10:47:40.683Z,-1.13
2023-01-29T10:50:33.944Z,-1.12
2023-01-29T10:53:22.566Z,-1.14
2023-01-29T10:56:17.404Z,-1.14
2023-01-29T10:58:53.709Z,-1.12
2023-01-29T11:01:22.285Z,-1.11
2023-01-29T11:03:58.764Z,-1.12
2023-01-29T11:06:31.720Z,-1.12
2023-01-29T11:09:08.482Z,-1.12
2023-01-29T11:11:45.709Z,-1.08
2023-01-29T11:14:18.112Z,-1.07
2023-01-29T11:16:49.201Z,-1.06
2023-01-29T11:19:17.746Z,-1.06
2023-01-29T11:21:54.592Z,-1.06
2023-01-29T11:24:23.155Z,-1.04
2023-01-29T11:26:57.462Z,-1.04
2023-01-29T11:29:44.406Z,-1.02
2023-01-29T11:32:16.416Z,-1.03
2023-01-29T11:35:06.070Z,-1.03
2023-01-29T11:37:38.075Z,-1.04
2023-01-29T11:40:37.695Z,-1.02
2023-01-29T11:43:29.716Z,-1.01
2023-01-29T11:46:02.181Z,-1.02
2023-01-29T11:48:42.348Z,-1.01
2023-01-29T11:51:21.432Z,-1.00
2023-01-29T11:53:54.083Z,-0.96
2023-01-29T11:56:28.557Z,-0.98
2023-01-29T11:59:00.184Z,-0.99
2023-01-29T12:01:36.591Z,-0.99
2023-01-29T12:04:16.370Z,-0.98
2023-01-29T12:06:49.055Z,-0.99
2023-01-29T12:09:21.249Z,-1.00
2023-01-29T12:11:49.814Z,-0.99
2023-01-29T12:14:33.683Z,-1.00
2023-01-29T12:17:07.715Z,-1.00
2023-01-29T12:19:42.942Z,-1.00
2023-01-29T12:22:17.606Z,-1.00
2023-01-29T12:24:55.250Z,-1.01
2023-01-29T12:27:28.467Z,-0.99
2023-01-29T12:30:06.426Z,-0.99
2023-01-29T12:32:46.065Z,-1.00
2023-01-29T12:35:21.472Z,-0.97
2023-01-29T12:37:57.060Z,-0.99
2023-01-29T12:40:30.786Z,-0.97
2023-01-29T12:43:05.568Z,-0.99
2023-01-29T12:45:38.071Z,-0.99
2023-01-29T12:48:11.731Z,-0.97
2023-01-29T12:50:40.867Z,-0.96
2023-01-29T12:53:19.628Z,-0.96
2023-01-29T12:55:55.559Z,-0.95
2023-01-29T12:58:29.929Z,-0.97
2023-01-29T13:01:09.817Z,-0.96
2023-01-29T13:03:51.223Z,-0.97
2023-01-29T13:06:25.083Z,-0.96
2023-01-29T13:08:57.645Z,-0.97
2023-01-29T13:11:29.547Z,-0.96
2023-01-29T13:14:02.523Z,-0.98
2023-01-29T13:16:38.975Z,-0.98
2023-01-29T13:19:16.176Z,-0.99
2023-01-29T13:21:46.187Z,-0.99
2023-01-29T13:24:17.949Z,-1.02
2023-01-29T13:26:47.721Z,-1.01
2023-01-29T13:29:23.980Z,-1.00
2023-01-29T13:31:55.710Z,-1.01
2023-01-29T13:34:26.256Z,-1.03
2023-01-29T13:36:58.721Z,-1.02
2023-01-29T13:39:31.788Z,-1.02
2023-01-29T13:42:02.613Z,-1.00
2023-01-29T13:44:35.308Z,-1.02
2023-01-29T13:47:07.464Z,-1.04
2023-01-29T13:49:40.057Z,-1.03
2023-01-29T13:52:18.802Z,-1.02
2023-01-29T13:54:58.723Z,-1.01
2023-01-29T13:57:57.974Z,-1.02
2023-01-29T14:00:57.658Z,-1.00
2023-01-29T14:04:04.833Z,-1.00
2023-01-29T14:06:53.104Z,-1.01
2023-01-29T14:09:57.045Z,-1.00
2023-01-29T14:12:46.247Z,-1.00
2023-01-29T14:15:27.282Z,-1.02
2023-01-29T14:18:16.399Z,-1.01
2023-01-29T14:21:00.095Z,-1.01
2023-01-29T14:23:36.006Z,-1.00
2023-01-29T14:26:07.627Z,-0.99
2023-01-29T14:28:36.883Z,-1.00
2023-01-29T14:31:07.809Z,-1.01
2023-01-29T14:33:41.019Z,-1.01
2023-01-29T14:36:15.224Z,-0.99
2023-01-29T14:38:50.345Z,-0.99
2023-01-29T14:41:27.103Z,-1.00
2023-01-29T14:44:29.139Z,-0.98
2023-01-29T14:46:57.760Z,-0.99
2023-01-29T14:49:55.370Z,-0.99
2023-01-29T14:52:34.095Z,-0.99
2023-01-29T14:55:08.722Z,-1.01
2023-01-29T14:57:38.978Z,-0.99
2023-01-29T15:00:18.777Z,-0.99
2023-01-29T15:02:48.361Z,-1.00
2023-01-29T15:05:21.227Z,-1.00
2023-01-29T15:07:58.519Z,-1.01
2023-01-29T15:10:44.172Z,-0.99
2023-01-29T15:13:21.462Z,-0.99
2023-01-29T15:15:55.900Z,-1.01
2023-01-29T15:18:33.206Z,-1.00
2023-01-29T15:21:05.799Z,-1.01
2023-01-29T15:23:36.204Z,-1.02
2023-01-29T15:26:07.695Z,-1.00
2023-01-29T15:28:37.202Z,-1.00
2023-01-29T15:31:10.072Z,-1.01
2023-01-29T15:33:39.842Z,-0.99
2023-01-29T15:36:09.646Z,-1.02
2023-01-29T15:38:39.765Z,-1.02
2023-01-29T15:41:19.439Z,-0.99
2023-01-29T15:43:50.237Z,-0.99
2023-01-29T15:46:24.362Z,-0.97
2023-01-29T15:48:55.051Z,-0.96
2023-01-29T15:51:26.738Z,-0.95
2023-01-29T15:53:59.874Z,-0.94
2023-01-29T15:56:31.274Z,-0.94
2023-01-29T15:59:04.027Z,-0.94
2023-01-29T16:01:34.563Z,-0.96
2023-01-29T16:04:04.610Z,-0.95
2023-01-29T16:06:39.321Z,-0.93
2023-01-29T16:09:12.041Z,-0.93
2023-01-29T16:11:42.081Z,-0.92
2023-01-29T16:14:15.222Z,-0.92
2023-01-29T16:16:45.747Z,-0.91
2023-01-29T16:19:24.722Z,-0.90
2023-01-29T16:21:58.882Z,-0.91
2023-01-29T16:24:31.444Z,-0.91
2023-01-29T16:27:02.362Z,-0.89
2023-01-29T16:29:34.283Z,-0.90
2023-01-29T16:32:06.475Z,-0.88
2023-01-29T16:34:39.466Z,-0.90
2023-01-29T16:37:17.946Z,-0.90
2023-01-29T16:39:50.844Z,-0.89
2023-01-29T16:42:28.754Z,-0.89
2023-01-29T16:45:02.517Z,-0.86
2023-01-29T16:47:34.486Z,-0.85
2023-01-29T16:50:26.075Z,-0.84
2023-01-29T16:53:03.529Z,-0.87
2023-01-29T16:55:40.274Z,-0.88
2023-01-29T16:58:14.878Z,-0.83
2023-01-29T17:00:47.274Z,-0.83
2023-01-29T17:03:19.409Z,-0.81
2023-01-29T17:05:52.961Z,-0.82
2023-01-29T17:08:27.839Z,-0.79
2023-01-29T17:10:56.538Z,-0.78
2023-01-29T17:13:30.937Z,-0.77
2023-01-29T17:16:03.032Z,-0.76
2023-01-29T17:18:31.920Z,-0.75
2023-01-29T17:21:00.787Z,-0.72
2023-01-29T17:23:30.896Z,-0.72
2023-01-29T17:26:01.317Z,-0.70
2023-01-29T17:28:31.115Z,-0.71
2023-01-29T17:31:06.349Z,-0.70
2023-01-29T17:33:37.111Z,-0.71
2023-01-29T17:36:07.174Z,-0.70
2023-01-29T17:38:37.429Z,-0.67
2023-01-29T17:41:10.490Z,-0.67
2023-01-29T17:43:39.960Z,-0.66
2023-01-29T17:46:15.111Z,-0.66
2023-01-29T17:48:44.699Z,-0.67
2023-01-29T17:51:19.145Z,-0.64
2023-01-29T17:53:49.248Z,-0.67
2023-01-29T17:56:19.615Z,-0.65
2023-01-29T17:58:48.300Z,-0.66
2023-01-29T18:01:17.478Z,-0.63
2023-01-29T18:03:46.449Z,-0.63
2023-01-29T18:06:27.769Z,-0.64
2023-01-29T18:08:57.909Z,-0.62
2023-01-29T18:11:26.871Z,-0.63
2023-01-29T18:13:55.430Z,-0.63
2023-01-29T18:16:24.482Z,-0.62
2023-01-29T18:18:53.901Z,-0.61
2023-01-29T18:21:22.951Z,-0.60
2023-01-29T18:23:51.451Z,-0.62
2023-01-29T18:26:22.487Z,-0.61
2023-01-29T18:28:51.445Z,-0.62
2023-01-29T18:31:19.993Z,-0.60
2023-01-29T18:33:48.798Z,-0.59
2023-01-29T18:36:17.671Z,-0.57
2023-01-29T18:38:46.628Z,-0.57
2023-01-29T18:41:15.284Z,-0.59
2023-01-29T18:43:45.523Z,-0.58
2023-01-29T18:46:14.135Z,-0.60
2023-01-29T18:48:43.015Z,-0.58
2023-01-29T18:51:12.088Z,-0.58
2023-01-29T18:53:40.605Z,-0.54
2023-01-29T18:56:09.606Z,-0.58
2023-01-29T18:58:38.314Z,-0.56
2023-01-29T19:01:12.225Z,-0.53
2023-01-29T19:03:41.291Z,-0.53
2023-01-29T19:06:11.826Z,-0.53
2023-01-29T19:08:41.447Z,-0.50
2023-01-29T19:11:12.753Z,-0.51
2023-01-29T19:13:42.986Z,-0.50
2023-01-29T19:16:13.705Z,-0.51
2023-01-29T19:18:42.593Z,-0.50
2023-01-29T19:21:12.987Z,-0.47
2023-01-29T19:23:42.381Z,-0.46
2023-01-29T19:26:11.774Z,-0.46
2023-01-29T19:28:40.757Z,-0.47
2023-01-29T19:31:10.298Z,-0.47
2023-01-29T19:33:40.933Z,-0.45
2023-01-29T19:36:10.289Z,-0.43
2023-01-29T19:38:40.342Z,-0.45
2023-01-29T19:41:09.160Z,-0.41
2023-01-29T19:43:38.892Z,-0.44
2023-01-29T19:46:07.973Z,-0.41
2023-01-29T19:48:36.676Z,-0.41
2023-01-29T19:51:10.025Z,-0.43
2023-01-29T19:53:40.125Z,-0.43
2023-01-29T19:56:14.508Z,-0.41
2023-01-29T19:58:43.339Z,-0.44
2023-01-29T20:01:17.745Z,-0.42
2023-01-29T20:03:47.936Z,-0.37
2023-01-29T20:06:21.808Z,-0.36
2023-01-29T20:08:53.521Z,-0.38
2023-01-29T20:11:23.830Z,-0.33
2023-01-29T20:13:54.198Z,-0.33
2023-01-29T20:16:23.308Z,-0.34
2023-01-29T20:19:13.988Z,-0.31
2023-01-29T20:21:50.537Z,-0.32
2023-01-29T20:24:19.677Z,-0.32
2023-01-29T20:26:48.372Z,-0.32
2023-01-29T20:29:17.385Z,-0.31
2023-01-29T20:31:46.457Z,-0.31
2023-01-29T20:34:17.824Z,-0.30
2023-01-29T20:36:48.175Z,-0.30
2023-01-29T20:39:17.183Z,-0.28
2023-01-29T20:41:46.660Z,-0.30
2023-01-29T20:44:15.648Z,-0.30
2023-01-29T20:46:44.357Z,-0.28
2023-01-29T20:49:13.319Z,-0.26
2023-01-29T20:51:42.240Z,-0.29
2023-01-29T20:54:15.173Z,-0.26
2023-01-29T20:56:45.150Z,-0.30
2023-01-29T20:59:15.605Z,-0.27
2023-01-29T21:01:45.619Z,-0.27
2023-01-29T21:04:16.825Z,-0.29
2023-01-29T21:06:48.742Z,-0.28
2023-01-29T21:09:20.829Z,-0.29
2023-01-29T21:11:50.484Z,-0.28
2023-01-29T21:14:19.126Z,-0.27
2023-01-29T21:16:49.200Z,-0.28
2023-01-29T21:19:21.708Z,-0.32
2023-01-29T21:21:56.208Z,-0.29
2023-01-29T21:24:28.090Z,-0.30
2023-01-29T21:26:57.584Z,-0.32
2023-01-29T21:29:26.635Z,-0.31
2023-01-29T21:31:55.300Z,-0.34
2023-01-29T21:34:24.473Z,-0.27
2023-01-29T21:36:57.350Z,-0.31
2023-01-29T21:39:28.666Z,-0.33
2023-01-29T21:42:17.350Z,-0.33
2023-01-29T21:44:46.394Z,-0.31
2023-01-29T21:47:15.214Z,-0.34
2023-01-29T21:49:45.196Z,-0.36
2023-01-29T21:52:17.767Z,-0.36
2023-01-29T21:54:49.345Z,-0.34
2023-01-29T21:57:19.229Z,-0.37
2023-01-29T21:59:52.823Z,-0.36
2023-01-29T22:02:23.287Z,-0.35
2023-01-29T22:04:54.194Z,-0.32
2023-01-29T22:07:23.644Z,-0.34
2023-01-29T22:09:54.396Z,-0.35
2023-01-29T22:12:23.809Z,-0.36
2023-01-29T22:14:52.765Z,-0.35
2023-01-29T22:17:23.581Z,-0.37
2023-01-29T22:19:53.873Z,-0.39
2023-01-29T22:22:25.764Z,-0.36
2023-01-29T22:24:58.024Z,-0.36
2023-01-29T22:27:27.965Z,-0.38
2023-01-29T22:29:57.081Z,-0.39
2023-01-29T22:32:29.372Z,-0.45
2023-01-29T22:34:58.686Z,-0.45
2023-01-29T22:37:27.754Z,-0.45
2023-01-29T22:39:59.556Z,-0.42
2023-01-29T22:42:35.725Z,-0.47
2023-01-29T22:45:07.539Z,-0.46
2023-01-29T22:47:39.291Z,-0.47
2023-01-29T22:50:10.837Z,-0.50
2023-01-29T22:52:54.389Z,-0.56
2023-01-29T22:55:28.016Z,-0.52
2023-01-29T22:57:56.994Z,-0.53
2023-01-29T23:00:28.934Z,-0.55
2023-01-29T23:03:03.524Z,-0.57
2023-01-29T23:05:36.164Z,-0.58
2023-01-29T23:08:08.028Z,-0.58
2023-01-29T23:10:38.890Z,-0.58
2023-01-29T23:13:07.412Z,-0.58
2023-01-29T23:15:36.077Z,-0.57
2023-01-29T23:18:05.125Z,-0.58
2023-01-29T23:20:33.781Z,-0.59
2023-01-29T23:23:02.475Z,-0.58
2023-01-29T23:25:44.755Z,-0.60
2023-01-29T23:28:15.079Z,-0.60
2023-01-29T23:30:45.435Z,-0.61
2023-01-29T23:33:14.198Z,-0.60
2023-01-29T23:35:43.130Z,-0.61
2023-01-29T23:38:11.665Z,-0.61
2023-01-29T23:40:40.130Z,-0.61
2023-01-29T23:43:08.788Z,-0.60
2023-01-29T23:45:38.732Z,-0.58
2023-01-29T23:48:07.721Z,-0.59
2023-01-29T23:50:36.234Z,-0.57
2023-01-29T23:53:04.821Z,-0.59
2023-01-29T23:55:33.396Z,-0.56
2023-01-29T23:58:01.956Z,-0.55
